createdAt,value
2019-04-26T00:00:56.159Z,46.50
2019-04-26T00:02:12.318Z,46.40
2019-04-26T00:03:24.523Z,46.40
2019-04-26T00:04:32.104Z,46.50
2019-04-26T00:05:39.451Z,46.30
2019-04-26T00:06:48.596Z,46.40
2019-04-26T00:07:55.896Z,45.80
2019-04-26T00:09:19.464Z,46.50
2019-04-26T00:10:34.243Z,46.40
2019-04-26T00:11:59.656Z,46.40
2019-04-26T00:13:14.666Z,46.40
2019-04-26T00:14:47.410Z,46.30
2019-04-26T00:16:04.557Z,46.30
2019-04-26T00:17:15.504Z,46.30
2019-04-26T00:18:23.071Z,46.40
2019-04-26T00:19:30.493Z,46.30
2019-04-26T00:20:38.016Z,46.60
2019-04-26T00:21:45.392Z,46.80
2019-04-26T00:22:53.144Z,46.80
2019-04-26T00:24:00.338Z,46.80
2019-04-26T00:25:08.363Z,46.80
2019-04-26T00:26:37.608Z,46.80
2019-04-26T00:27:44.825Z,46.80
2019-04-26T00:28:52.149Z,46.70
2019-04-26T00:29:59.439Z,46.70
2019-04-26T00:31:06.720Z,47.10
2019-04-26T00:32:14.870Z,47.10
2019-04-26T00:33:22.646Z,47.10
2019-04-26T00:34:30.948Z,47.10
2019-04-26T00:35:47.473Z,47.20
2019-04-26T00:36:47.109Z,47.30
2019-04-26T00:37:54.336Z,47.30
2019-04-26T00:39:01.577Z,47.30
2019-04-26T00:40:11.838Z,47.30
2019-04-26T00:41:20.626Z,47.50
2019-04-26T00:42:28.865Z,47.50
2019-04-26T00:43:36.690Z,47.50
2019-04-26T00:44:44.711Z,47.50
2019-04-26T00:45:54.622Z,47.40
2019-04-26T00:47:05.342Z,47.40
2019-04-26T00:48:16.804Z,47.40
2019-04-26T00:49:24.684Z,47.50
2019-04-26T00:50:45.772Z,47.40
2019-04-26T00:51:53.781Z,47.30
2019-04-26T00:53:04.051Z,47.20
2019-04-26T00:54:12.055Z,47.60
2019-04-26T00:55:21.786Z,47.20
2019-04-26T00:56:30.107Z,47.20
2019-04-26T00:57:38.115Z,47.20
2019-04-26T00:58:45.938Z,47.30
2019-04-26T00:59:53.780Z,47.30
2019-04-26T01:01:01.800Z,47.30
2019-04-26T01:02:18.633Z,47.30
2019-04-26T01:03:25.871Z,47.30
2019-04-26T01:04:33.062Z,47.30
2019-04-26T01:05:40.939Z,47.10
2019-04-26T01:06:49.899Z,46.70
2019-04-26T01:07:57.499Z,46.70
2019-04-26T01:09:06.991Z,46.70
2019-04-26T01:10:16.640Z,46.70
2019-04-26T01:11:25.958Z,46.60
2019-04-26T01:12:33.635Z,46.60
2019-04-26T01:13:40.859Z,46.60
2019-04-26T01:14:48.086Z,46.60
2019-04-26T01:15:55.282Z,46.80
2019-04-26T01:17:02.528Z,46.90
2019-04-26T01:18:09.731Z,47.00
2019-04-26T01:19:18.776Z,47.00
2019-04-26T01:20:30.514Z,47.00
2019-04-26T01:21:46.056Z,47.00
2019-04-26T01:22:57.675Z,47.00
2019-04-26T01:24:07.478Z,46.90
2019-04-26T01:26:14.941Z,47.00
2019-04-26T01:27:27.684Z,47.20
2019-04-26T01:28:54.429Z,46.80
2019-04-26T01:30:07.985Z,47.00
2019-04-26T01:31:18.507Z,47.00
2019-04-26T01:32:28.263Z,47.00
2019-04-26T01:33:38.438Z,47.10
2019-04-26T01:34:49.550Z,47.60
2019-04-26T01:35:57.165Z,47.10
2019-04-26T01:37:05.637Z,47.80
2019-04-26T01:38:16.960Z,47.20
2019-04-26T01:39:24.442Z,47.20
2019-04-26T01:40:33.286Z,47.20
2019-04-26T01:41:45.731Z,47.30
2019-04-26T01:43:04.300Z,47.40
2019-04-26T01:44:22.663Z,47.40
2019-04-26T01:45:44.735Z,47.40
2019-04-26T01:46:51.990Z,47.50
2019-04-26T01:48:05.714Z,47.30
2019-04-26T01:49:16.327Z,47.50
2019-04-26T01:50:28.143Z,48.20
2019-04-26T01:51:53.332Z,47.60
2019-04-26T01:53:02.146Z,47.70
2019-04-26T01:54:13.856Z,47.70
2019-04-26T01:55:22.959Z,47.80
2019-04-26T01:56:36.212Z,47.90
2019-04-26T01:57:44.340Z,48.00
2019-04-26T01:58:52.215Z,48.00
2019-04-26T02:00:06.563Z,48.20
2019-04-26T02:01:22.716Z,48.40
2019-04-26T02:02:55.608Z,48.30
2019-04-26T02:04:02.847Z,48.30
2019-04-26T02:05:15.550Z,48.20
2019-04-26T02:06:28.804Z,48.40
2019-04-26T02:07:39.542Z,48.50
2019-04-26T02:08:46.967Z,48.50
2019-04-26T02:09:54.432Z,48.50
2019-04-26T02:11:01.778Z,48.60
2019-04-26T02:12:09.390Z,48.60
2019-04-26T02:13:17.140Z,48.70
2019-04-26T02:14:25.287Z,48.70
2019-04-26T02:15:34.968Z,48.80
2019-04-26T02:16:42.623Z,48.80
2019-04-26T02:17:53.441Z,48.80
2019-04-26T02:19:00.800Z,48.80
2019-04-26T02:20:08.985Z,48.80
2019-04-26T02:21:45.079Z,48.90
2019-04-26T02:23:02.390Z,48.90
2019-04-26T02:24:17.942Z,48.70
2019-04-26T02:25:25.969Z,48.70
2019-04-26T02:26:34.839Z,48.70
2019-04-26T02:27:44.654Z,49.30
2019-04-26T02:28:52.344Z,48.70
2019-04-26T02:30:01.573Z,48.70
2019-04-26T02:31:08.901Z,48.90
2019-04-26T02:32:18.193Z,48.80
2019-04-26T02:33:27.447Z,48.90
2019-04-26T02:34:37.999Z,48.90
2019-04-26T02:35:46.245Z,49.00
2019-04-26T02:36:59.134Z,48.90
2019-04-26T02:38:06.593Z,49.10
2019-04-26T02:39:21.019Z,49.20
2019-04-26T02:40:30.099Z,49.20
2019-04-26T02:41:37.979Z,49.20
2019-04-26T02:42:46.386Z,49.20
2019-04-26T02:43:58.009Z,49.40
2019-04-26T02:46:19.441Z,49.50
2019-04-26T02:47:57.719Z,49.60
2019-04-26T02:49:37.065Z,49.10
2019-04-26T02:50:52.120Z,49.10
2019-04-26T02:52:53.580Z,49.80
2019-04-26T02:54:45.193Z,49.60
2019-04-26T02:56:35.121Z,49.40
2019-04-26T02:57:53.847Z,49.40
2019-04-26T02:59:43.054Z,49.60
2019-04-26T03:00:52.469Z,49.80
2019-04-26T03:02:04.732Z,49.70
2019-04-26T03:03:14.277Z,50.30
2019-04-26T03:04:24.004Z,50.40
2019-04-26T03:05:36.278Z,50.70
2019-04-26T03:07:02.434Z,50.80
2019-04-26T03:08:04.196Z,50.80
2019-04-26T03:09:14.005Z,51.40
2019-04-26T03:10:31.811Z,51.10
2019-04-26T03:11:43.502Z,51.30
2019-04-26T03:12:55.197Z,51.30
2019-04-26T03:14:24.495Z,51.30
2019-04-26T03:15:58.090Z,51.50
2019-04-26T03:17:18.071Z,51.40
2019-04-26T03:18:43.042Z,51.40
2019-04-26T03:20:00.466Z,51.50
2019-04-26T03:21:17.635Z,51.60
2019-04-26T03:22:46.864Z,51.80
2019-04-26T03:24:06.932Z,51.80
2019-04-26T03:25:38.803Z,51.70
2019-04-26T03:27:17.898Z,51.80
2019-04-26T03:29:03.078Z,51.80
2019-04-26T03:30:48.660Z,52.30
2019-04-26T03:32:50.467Z,51.60
2019-04-26T03:34:12.545Z,51.60
2019-04-26T03:36:00.427Z,51.50
2019-04-26T03:37:53.019Z,51.70
2019-04-26T03:39:30.668Z,51.60
2019-04-26T03:40:59.573Z,51.60
2019-04-26T03:43:11.580Z,52.40
2019-04-26T03:44:31.271Z,52.00
2019-04-26T03:46:24.268Z,51.80
2019-04-26T03:48:09.841Z,52.10
2019-04-26T03:50:19.166Z,52.40
2019-04-26T03:51:56.961Z,51.90
2019-04-26T03:53:47.262Z,51.80
2019-04-26T03:54:59.436Z,52.10
2019-04-26T03:57:14.797Z,52.00
2019-04-26T03:58:36.628Z,52.50
2019-04-26T04:00:11.862Z,52.10
2019-04-26T04:01:20.585Z,52.40
2019-04-26T04:02:58.899Z,52.60
2019-04-26T04:04:26.676Z,52.70
2019-04-26T04:05:46.037Z,52.70
2019-04-26T04:07:03.784Z,52.70
2019-04-26T04:08:09.797Z,52.70
2019-04-26T04:09:18.093Z,53.10
2019-04-26T04:10:31.654Z,53.30
2019-04-26T04:12:10.289Z,53.40
2019-04-26T04:13:59.580Z,53.50
2019-04-26T04:15:17.165Z,53.50
2019-04-26T04:16:50.501Z,53.20
2019-04-26T04:18:09.204Z,53.50
2019-04-26T04:20:07.030Z,53.40
2019-04-26T04:21:48.362Z,53.70
2019-04-26T04:23:09.229Z,53.40
2019-04-26T04:24:30.873Z,53.50
2019-04-26T04:25:45.873Z,53.70
2019-04-26T04:27:21.358Z,53.80
2019-04-26T04:29:56.091Z,53.90
2019-04-26T04:34:03.791Z,53.60
2019-04-26T04:35:14.003Z,53.30
2019-04-26T04:36:42.342Z,53.50
2019-04-26T04:38:09.099Z,53.90
2019-04-26T04:39:46.383Z,53.90
2019-04-26T04:41:13.454Z,54.10
2019-04-26T04:42:57.080Z,53.90
2019-04-26T04:44:39.459Z,54.80
2019-04-26T04:46:14.312Z,54.00
2019-04-26T04:47:46.066Z,54.00
2019-04-26T04:49:35.309Z,54.10
2019-04-26T04:50:52.523Z,54.20
2019-04-26T04:52:31.603Z,54.30
2019-04-26T04:54:13.321Z,54.30
2019-04-26T04:55:52.983Z,54.30
2019-04-26T04:57:39.587Z,54.30
2019-04-26T04:58:54.315Z,54.10
2019-04-26T05:00:15.461Z,54.10
2019-04-26T05:02:35.951Z,54.40
2019-04-26T05:04:00.904Z,54.60
2019-04-26T05:06:07.532Z,54.20
2019-04-26T05:08:07.103Z,54.40
2019-04-26T05:09:29.922Z,54.30
2019-04-26T05:11:02.622Z,54.30
2019-04-26T05:12:44.469Z,54.70
2019-04-26T05:14:10.303Z,54.70
2019-04-26T05:16:14.698Z,54.60
2019-04-26T05:18:07.446Z,54.70
2019-04-26T05:19:57.146Z,54.70
2019-04-26T05:21:42.372Z,54.70
2019-04-26T05:23:44.627Z,54.60
2019-04-26T05:26:18.823Z,54.80
2019-04-26T05:28:08.207Z,54.80
2019-04-26T05:30:17.679Z,54.30
2019-04-26T05:31:45.898Z,54.40
2019-04-26T05:34:05.536Z,54.50
2019-04-26T05:35:41.716Z,54.80
2019-04-26T05:37:55.225Z,54.50
2019-04-26T05:39:31.734Z,54.80
2019-04-26T05:41:36.690Z,54.80
2019-04-26T05:43:37.684Z,55.10
2019-04-26T05:45:27.773Z,54.70
2019-04-26T05:47:19.016Z,54.80
2019-04-26T05:49:28.420Z,54.80
2019-04-26T05:52:04.981Z,54.80
2019-04-26T05:54:39.250Z,54.80
2019-04-26T05:56:39.449Z,54.70
2019-04-26T05:58:46.640Z,54.60
2019-04-26T06:00:50.573Z,54.80
2019-04-26T06:02:59.010Z,55.00
2019-04-26T06:04:38.629Z,54.80
2019-04-26T06:06:35.034Z,54.90
2019-04-26T06:08:33.791Z,55.10
2019-04-26T06:10:28.499Z,55.00
2019-04-26T06:11:48.658Z,55.00
2019-04-26T06:14:00.710Z,55.20
2019-04-26T06:15:39.322Z,55.40
2019-04-26T06:17:53.503Z,55.20
2019-04-26T06:19:22.648Z,55.30
2019-04-26T06:21:04.861Z,55.40
2019-04-26T06:22:41.720Z,55.40
2019-04-26T06:24:22.342Z,55.40
2019-04-26T06:26:30.744Z,55.60
2019-04-26T06:28:04.418Z,55.80
2019-04-26T06:29:20.271Z,55.50
2019-04-26T06:31:01.808Z,55.70
2019-04-26T06:32:25.642Z,56.00
2019-04-26T06:33:43.796Z,55.90
2019-04-26T06:35:20.008Z,56.00
2019-04-26T06:36:36.932Z,55.90
2019-04-26T06:38:47.714Z,56.00
2019-04-26T06:40:12.921Z,56.10
2019-04-26T06:42:05.151Z,55.80
2019-04-26T06:43:26.496Z,55.90
2019-04-26T06:45:45.212Z,55.80
2019-04-26T06:47:08.233Z,56.00
2019-04-26T06:48:35.142Z,55.70
2019-04-26T06:50:19.395Z,56.00
2019-04-26T06:51:36.596Z,55.90
2019-04-26T06:53:15.511Z,55.80
2019-04-26T06:54:37.211Z,55.80
2019-04-26T06:56:09.355Z,56.00
2019-04-26T06:58:05.504Z,55.80
2019-04-26T06:59:51.931Z,55.60
2019-04-26T07:01:19.265Z,55.50
2019-04-26T07:02:39.133Z,55.60
2019-04-26T07:04:24.941Z,55.70
2019-04-26T07:05:38.007Z,55.60
2019-04-26T07:07:04.608Z,55.70
2019-04-26T07:08:39.642Z,55.70
2019-04-26T07:10:30.181Z,55.80
2019-04-26T07:12:34.670Z,55.60
2019-04-26T07:14:45.030Z,55.60
2019-04-26T07:16:29.790Z,55.60
2019-04-26T07:18:22.270Z,55.20
2019-04-26T07:20:33.463Z,55.60
2019-04-26T07:22:35.511Z,55.80
2019-04-26T07:25:09.100Z,55.80
2019-04-26T07:26:54.721Z,55.80
2019-04-26T07:28:22.441Z,55.80
2019-04-26T07:30:07.594Z,55.80
2019-04-26T07:31:48.551Z,56.10
2019-04-26T07:33:45.422Z,56.00
2019-04-26T07:35:31.459Z,56.20
2019-04-26T07:37:38.987Z,56.00
2019-04-26T07:39:35.177Z,56.20
2019-04-26T07:41:34.952Z,56.00
2019-04-26T07:43:29.660Z,56.10
2019-04-26T07:45:17.393Z,55.90
2019-04-26T07:47:24.574Z,55.80
2019-04-26T07:49:19.066Z,55.80
2019-04-26T07:51:19.326Z,55.70
2019-04-26T07:53:04.605Z,55.60
2019-04-26T07:55:04.978Z,55.40
2019-04-26T07:57:04.589Z,55.50
2019-04-26T07:59:30.004Z,55.40
2019-04-26T08:00:52.329Z,55.60
2019-04-26T08:02:40.909Z,55.50
2019-04-26T08:04:03.788Z,55.40
2019-04-26T08:05:26.005Z,55.20
2019-04-26T08:06:52.209Z,55.30
2019-04-26T08:08:06.902Z,55.40
2019-04-26T08:09:26.536Z,55.20
2019-04-26T08:10:28.024Z,55.20
2019-04-26T08:11:44.700Z,55.20
2019-04-26T08:13:06.087Z,55.80
2019-04-26T08:14:39.446Z,55.20
2019-04-26T08:16:13.209Z,55.30
2019-04-26T08:17:55.932Z,55.20
2019-04-26T08:19:08.551Z,55.10
2019-04-26T08:20:34.658Z,54.90
2019-04-26T08:21:48.112Z,55.00
2019-04-26T08:23:08.987Z,54.90
2019-04-26T08:24:21.574Z,54.90
2019-04-26T08:25:33.895Z,54.90
2019-04-26T08:26:44.963Z,54.90
2019-04-26T08:27:55.623Z,54.90
2019-04-26T08:29:07.037Z,54.90
2019-04-26T08:30:19.073Z,55.40
2019-04-26T08:31:29.873Z,54.90
2019-04-26T08:32:47.256Z,55.00
2019-04-26T08:34:02.061Z,54.80
2019-04-26T08:35:23.374Z,54.80
2019-04-26T08:36:38.550Z,54.70
2019-04-26T08:37:54.269Z,54.60
2019-04-26T08:39:04.645Z,54.50
2019-04-26T08:40:23.092Z,54.60
2019-04-26T08:41:26.069Z,54.60
2019-04-26T08:42:43.363Z,54.60
2019-04-26T08:44:07.207Z,54.10
2019-04-26T08:45:25.912Z,54.60
2019-04-26T08:46:47.438Z,54.60
2019-04-26T08:48:12.680Z,54.60
2019-04-26T08:49:44.214Z,54.60
2019-04-26T08:50:52.231Z,54.60
2019-04-26T08:52:13.924Z,54.50
2019-04-26T08:53:14.274Z,54.60
2019-04-26T08:54:26.465Z,54.50
2019-04-26T08:55:37.022Z,54.50
2019-04-26T08:56:49.185Z,54.50
2019-04-26T08:58:01.495Z,54.60
2019-04-26T08:59:20.137Z,54.60
2019-04-26T09:00:41.257Z,54.70
2019-04-26T09:01:58.475Z,54.70
2019-04-26T09:03:18.923Z,54.60
2019-04-26T09:04:34.292Z,54.70
2019-04-26T09:06:07.928Z,55.20
2019-04-26T09:07:22.302Z,54.80
2019-04-26T09:08:39.358Z,54.80
2019-04-26T09:09:57.064Z,54.90
2019-04-26T09:11:02.972Z,55.00
2019-04-26T09:12:22.830Z,55.00
2019-04-26T09:13:30.269Z,55.20
2019-04-26T09:14:42.265Z,55.20
2019-04-26T09:16:18.343Z,55.10
2019-04-26T09:17:27.827Z,55.20
2019-04-26T09:18:43.212Z,55.10
2019-04-26T09:19:43.622Z,55.10
2019-04-26T09:20:50.844Z,55.10
2019-04-26T09:22:12.792Z,55.10
2019-04-26T09:23:39.533Z,55.30
2019-04-26T09:24:48.139Z,55.20
2019-04-26T09:25:59.414Z,55.10
2019-04-26T09:27:11.683Z,55.10
2019-04-26T09:28:28.793Z,55.10
2019-04-26T09:29:54.896Z,55.10
2019-04-26T09:31:21.161Z,55.10
2019-04-26T09:32:47.330Z,55.10
2019-04-26T09:33:59.236Z,55.60
2019-04-26T09:35:06.918Z,55.10
2019-04-26T09:36:14.245Z,55.00
2019-04-26T09:37:22.309Z,55.30
2019-04-26T09:38:29.541Z,55.30
2019-04-26T09:39:36.762Z,55.30
2019-04-26T09:40:45.458Z,55.20
2019-04-26T09:41:54.443Z,55.30
2019-04-26T09:43:10.509Z,55.30
2019-04-26T09:44:33.063Z,55.10
2019-04-26T09:45:48.152Z,55.30
2019-04-26T09:47:19.589Z,55.30
2019-04-26T09:48:37.316Z,55.30
2019-04-26T09:50:03.661Z,55.10
2019-04-26T09:51:10.972Z,55.20
2019-04-26T09:52:23.849Z,55.00
2019-04-26T09:53:31.138Z,55.00
2019-04-26T09:54:38.455Z,54.90
2019-04-26T09:55:45.680Z,54.80
2019-04-26T09:56:52.925Z,54.80
2019-04-26T09:58:00.145Z,54.90
2019-04-26T09:59:09.161Z,55.00
2019-04-26T10:00:24.201Z,54.90
2019-04-26T10:01:32.702Z,55.00
2019-04-26T10:02:40.278Z,55.00
2019-04-26T10:03:47.501Z,55.10
2019-04-26T10:04:54.803Z,55.10
2019-04-26T10:06:02.135Z,55.10
2019-04-26T10:07:10.185Z,55.10
2019-04-26T10:08:18.559Z,55.20
2019-04-26T10:09:26.557Z,55.10
2019-04-26T10:10:35.235Z,55.70
2019-04-26T10:11:49.561Z,55.00
2019-04-26T10:13:15.088Z,55.00
2019-04-26T10:14:46.398Z,55.00
2019-04-26T10:16:02.491Z,54.90
2019-04-26T10:17:21.143Z,54.90
2019-04-26T10:18:28.551Z,54.90
2019-04-26T10:19:45.888Z,55.10
2019-04-26T10:20:53.147Z,55.10
2019-04-26T10:22:00.354Z,55.10
2019-04-26T10:23:07.910Z,55.20
2019-04-26T10:24:16.551Z,55.20
2019-04-26T10:25:24.063Z,55.30
2019-04-26T10:26:31.298Z,55.40
2019-04-26T10:27:40.775Z,55.30
2019-04-26T10:28:50.605Z,55.30
2019-04-26T10:30:07.815Z,55.40
2019-04-26T10:31:06.323Z,55.40
2019-04-26T10:32:13.783Z,55.50
2019-04-26T10:33:21.002Z,55.40
2019-04-26T10:34:28.394Z,55.40
2019-04-26T10:35:35.678Z,55.60
2019-04-26T10:36:44.133Z,55.80
2019-04-26T10:37:52.678Z,55.70
2019-04-26T10:39:00.135Z,55.70
2019-04-26T10:40:09.337Z,55.80
2019-04-26T10:41:16.956Z,56.00
2019-04-26T10:42:24.241Z,56.00
2019-04-26T10:43:31.450Z,56.00
2019-04-26T10:44:40.172Z,56.00
2019-04-26T10:45:53.590Z,56.00
2019-04-26T10:46:59.910Z,56.20
2019-04-26T10:48:09.729Z,56.20
2019-04-26T10:49:45.327Z,56.30
2019-04-26T10:50:52.540Z,56.50
2019-04-26T10:51:59.770Z,56.40
2019-04-26T10:53:17.762Z,56.40
2019-04-26T10:54:24.976Z,56.30
2019-04-26T10:55:51.527Z,56.30
2019-04-26T10:57:12.265Z,56.30
2019-04-26T10:58:32.047Z,56.10
2019-04-26T10:59:50.889Z,56.70
2019-04-26T11:00:59.164Z,56.10
2019-04-26T11:02:10.772Z,56.30
2019-04-26T11:03:18.024Z,56.30
2019-04-26T11:04:25.890Z,56.40
2019-04-26T11:05:33.352Z,56.50
2019-04-26T11:06:40.607Z,56.50
2019-04-26T11:07:47.920Z,56.50
2019-04-26T11:08:55.131Z,56.70
2019-04-26T11:10:03.023Z,56.80
2019-04-26T11:11:11.053Z,56.60
2019-04-26T11:12:19.557Z,56.90
2019-04-26T11:13:26.750Z,56.80
2019-04-26T11:14:33.961Z,56.90
2019-04-26T11:15:41.174Z,57.00
2019-04-26T11:16:48.381Z,57.20
2019-04-26T11:17:56.120Z,57.20
2019-04-26T11:19:05.012Z,57.20
2019-04-26T11:20:12.540Z,57.20
2019-04-26T11:21:21.012Z,57.30
2019-04-26T11:22:33.146Z,57.20
2019-04-26T11:23:41.207Z,57.20
2019-04-26T11:24:50.108Z,57.20
2019-04-26T11:25:58.053Z,57.20
2019-04-26T11:27:09.690Z,57.30
2019-04-26T11:28:21.068Z,57.50
2019-04-26T11:29:28.799Z,57.70
2019-04-26T11:30:35.336Z,57.80
2019-04-26T11:31:42.533Z,57.70
2019-04-26T11:32:49.742Z,57.70
2019-04-26T11:34:05.182Z,57.70
2019-04-26T11:35:06.062Z,57.50
2019-04-26T11:36:13.324Z,57.50
2019-04-26T11:37:20.572Z,57.30
2019-04-26T11:38:31.169Z,57.20
2019-04-26T11:39:40.583Z,57.20
2019-04-26T11:40:49.842Z,57.00
2019-04-26T11:41:57.095Z,57.00
2019-04-26T11:43:05.058Z,57.10
2019-04-26T11:44:12.285Z,57.00
2019-04-26T11:45:19.657Z,57.10
2019-04-26T11:46:29.251Z,56.90
2019-04-26T11:47:37.179Z,56.80
2019-04-26T11:48:44.725Z,56.80
2019-04-26T11:49:52.251Z,56.90
2019-04-26T11:50:59.522Z,57.00
2019-04-26T11:52:07.878Z,57.00
2019-04-26T11:53:15.097Z,57.00
2019-04-26T11:54:22.337Z,57.10
2019-04-26T11:55:30.138Z,57.00
2019-04-26T11:56:38.875Z,56.90
2019-04-26T11:57:47.640Z,56.90
2019-04-26T11:58:56.846Z,56.80
2019-04-26T12:00:05.483Z,56.90
2019-04-26T12:01:15.791Z,56.90
2019-04-26T12:02:23.057Z,56.80
2019-04-26T12:03:30.304Z,56.70
2019-04-26T12:05:02.435Z,56.60
2019-04-26T12:06:31.773Z,56.50
2019-04-26T12:07:43.800Z,56.50
2019-04-26T12:08:56.959Z,56.60
2019-04-26T12:10:09.234Z,56.80
2019-04-26T12:11:18.550Z,56.90
2019-04-26T12:12:23.808Z,56.90
2019-04-26T12:13:31.144Z,57.00
2019-04-26T12:14:38.406Z,57.00
2019-04-26T12:15:45.626Z,57.00
2019-04-26T12:16:59.164Z,57.40
2019-04-26T12:18:05.695Z,57.80
2019-04-26T12:19:14.282Z,58.00
2019-04-26T12:20:22.450Z,57.80
2019-04-26T12:21:30.503Z,57.70
2019-04-26T12:22:39.402Z,58.00
2019-04-26T12:23:46.825Z,58.00
2019-04-26T12:24:54.050Z,58.00
2019-04-26T12:26:01.275Z,58.30
2019-04-26T12:27:10.381Z,58.30
2019-04-26T12:28:17.452Z,58.60
2019-04-26T12:29:24.984Z,58.70
2019-04-26T12:30:32.240Z,58.70
2019-04-26T12:31:39.645Z,58.70
2019-04-26T12:32:46.917Z,58.90
2019-04-26T12:33:54.201Z,59.10
2019-04-26T12:35:01.441Z,59.20
2019-04-26T12:36:13.427Z,59.10
2019-04-26T12:37:21.099Z,59.70
2019-04-26T12:38:28.644Z,59.10
2019-04-26T12:39:38.315Z,59.20
2019-04-26T12:40:47.603Z,59.30
2019-04-26T12:41:54.937Z,59.50
2019-04-26T12:43:02.148Z,60.30
2019-04-26T12:44:09.933Z,59.60
2019-04-26T12:45:54.649Z,60.50
2019-04-26T12:47:08.029Z,60.00
2019-04-26T12:48:17.471Z,59.50
2019-04-26T12:49:25.412Z,59.50
2019-04-26T12:50:36.426Z,59.60
2019-04-26T12:51:42.780Z,59.80
2019-04-26T12:52:51.440Z,59.80
2019-04-26T12:53:59.534Z,59.80
2019-04-26T12:55:06.950Z,59.90
2019-04-26T12:56:14.339Z,59.90
2019-04-26T12:57:21.570Z,60.00
2019-04-26T12:58:28.808Z,60.00
2019-04-26T12:59:43.891Z,60.10
2019-04-26T13:00:53.930Z,60.40
2019-04-26T13:02:04.984Z,60.50
2019-04-26T13:03:04.344Z,60.80
2019-04-26T13:04:11.539Z,61.00
2019-04-26T13:05:20.280Z,61.10
2019-04-26T13:06:32.004Z,61.00
2019-04-26T13:07:39.075Z,61.10
2019-04-26T13:08:51.405Z,61.20
2019-04-26T13:10:35.452Z,61.10
2019-04-26T13:12:00.594Z,61.10
2019-04-26T13:13:21.863Z,61.00
2019-04-26T13:14:56.980Z,60.90
2019-04-26T13:16:26.526Z,61.00
2019-04-26T13:17:47.235Z,60.80
2019-04-26T13:18:54.479Z,61.00
2019-04-26T13:20:01.762Z,61.00
2019-04-26T13:21:10.383Z,61.00
2019-04-26T13:22:17.624Z,61.20
2019-04-26T13:23:25.390Z,61.80
2019-04-26T13:24:35.525Z,61.70
2019-04-26T13:25:42.784Z,62.20
2019-04-26T13:26:50.215Z,61.40
2019-04-26T13:27:57.611Z,61.60
2019-04-26T13:29:04.927Z,61.70
2019-04-26T13:30:13.818Z,61.60
2019-04-26T13:31:21.062Z,61.80
2019-04-26T13:32:28.273Z,61.30
2019-04-26T13:33:35.545Z,61.20
2019-04-26T13:34:42.783Z,61.30
2019-04-26T13:36:02.758Z,61.40
2019-04-26T13:37:03.004Z,61.90
2019-04-26T13:38:11.407Z,62.10
2019-04-26T13:39:22.365Z,62.30
2019-04-26T13:40:29.511Z,62.70
2019-04-26T13:41:38.714Z,62.80
2019-04-26T13:42:47.382Z,62.70
2019-04-26T13:43:57.171Z,62.90
2019-04-26T13:45:15.767Z,62.90
2019-04-26T13:46:43.441Z,63.00
2019-04-26T13:48:12.530Z,63.00
2019-04-26T13:49:32.279Z,62.90
2019-04-26T13:50:50.310Z,62.80
2019-04-26T13:51:57.790Z,62.70
2019-04-26T13:53:05.028Z,62.70
2019-04-26T13:54:12.274Z,62.90
2019-04-26T13:55:19.467Z,63.00
2019-04-26T13:56:26.797Z,63.00
2019-04-26T13:57:34.009Z,63.30
2019-04-26T13:58:41.249Z,63.40
2019-04-26T13:59:48.572Z,63.60
2019-04-26T14:00:56.115Z,63.90
2019-04-26T14:02:11.500Z,63.90
2019-04-26T14:03:12.905Z,63.80
2019-04-26T14:04:21.372Z,64.00
2019-04-26T14:05:28.612Z,63.90
2019-04-26T14:06:35.817Z,64.10
2019-04-26T14:07:43.035Z,64.10
2019-04-26T14:08:53.672Z,63.90
2019-04-26T14:09:59.293Z,64.00
2019-04-26T14:11:07.175Z,64.00
2019-04-26T14:12:18.544Z,64.10
2019-04-26T14:13:25.050Z,64.20
2019-04-26T14:14:34.222Z,64.30
2019-04-26T14:15:43.643Z,64.30
2019-04-26T14:16:52.066Z,64.50
2019-04-26T14:18:04.248Z,64.50
2019-04-26T14:19:14.793Z,64.40
2019-04-26T14:20:19.182Z,64.50
2019-04-26T14:21:29.309Z,64.40
2019-04-26T14:22:42.450Z,64.40
2019-04-26T14:24:14.804Z,64.30
2019-04-26T14:25:26.988Z,64.30
2019-04-26T14:26:41.744Z,64.10
2019-04-26T14:27:51.693Z,64.10
2019-04-26T14:28:59.888Z,64.10
2019-04-26T14:30:09.423Z,64.30
2019-04-26T14:31:18.197Z,64.60
2019-04-26T14:32:25.632Z,64.60
2019-04-26T14:33:33.396Z,64.60
2019-04-26T14:34:41.974Z,64.80
2019-04-26T14:35:50.615Z,64.60
2019-04-26T14:37:06.352Z,64.30
2019-04-26T14:38:08.162Z,64.30
2019-04-26T14:39:19.540Z,64.50
2019-04-26T14:40:24.410Z,64.10
2019-04-26T14:41:31.698Z,64.10
2019-04-26T14:42:46.006Z,64.20
2019-04-26T14:43:48.131Z,64.20
2019-04-26T14:44:55.373Z,64.00
2019-04-26T14:46:02.634Z,64.20
2019-04-26T14:47:14.715Z,64.50
2019-04-26T14:48:20.862Z,64.10
2019-04-26T14:49:38.463Z,64.10
2019-04-26T14:50:36.874Z,64.00
2019-04-26T14:51:46.981Z,64.20
2019-04-26T14:52:53.021Z,64.50
2019-04-26T14:54:00.295Z,64.50
2019-04-26T14:55:07.688Z,64.30
2019-04-26T14:56:14.985Z,64.00
2019-04-26T14:57:29.322Z,63.90
2019-04-26T14:58:33.598Z,64.10
2019-04-26T14:59:57.621Z,64.30
2019-04-26T15:01:05.478Z,64.60
2019-04-26T15:02:25.396Z,64.60
2019-04-26T15:03:39.766Z,64.60
2019-04-26T15:05:12.253Z,64.30
2019-04-26T15:06:25.884Z,64.60
2019-04-26T15:07:35.051Z,64.50
2019-04-26T15:08:45.240Z,64.20
2019-04-26T15:09:52.891Z,64.10
2019-04-26T15:11:01.333Z,64.20
2019-04-26T15:12:14.100Z,64.70
2019-04-26T15:13:20.857Z,64.60
2019-04-26T15:14:27.116Z,64.50
2019-04-26T15:15:34.747Z,64.60
2019-04-26T15:16:44.982Z,64.80
2019-04-26T15:17:55.059Z,65.00
2019-04-26T15:19:00.031Z,64.90
2019-04-26T15:20:07.944Z,64.80
2019-04-26T15:21:16.374Z,64.70
2019-04-26T15:22:24.429Z,64.60
2019-04-26T15:23:32.983Z,64.50
2019-04-26T15:24:42.076Z,64.00
2019-04-26T15:25:49.868Z,64.00
2019-04-26T15:27:01.945Z,63.80
2019-04-26T15:28:11.969Z,63.90
2019-04-26T15:29:16.359Z,64.00
2019-04-26T15:30:23.903Z,64.10
2019-04-26T15:31:32.992Z,63.90
2019-04-26T15:32:40.407Z,63.40
2019-04-26T15:33:48.891Z,63.10
2019-04-26T15:34:58.602Z,63.40
2019-04-26T15:36:06.468Z,63.40
2019-04-26T15:37:16.073Z,63.20
2019-04-26T15:38:23.845Z,64.10
2019-04-26T15:39:58.316Z,63.10
2019-04-26T15:41:16.961Z,63.20
2019-04-26T15:42:36.157Z,63.20
2019-04-26T15:43:56.958Z,63.30
2019-04-26T15:45:25.179Z,63.40
2019-04-26T15:46:59.647Z,63.40
2019-04-26T15:48:20.147Z,63.70
2019-04-26T15:49:44.431Z,62.30
2019-04-26T15:50:53.546Z,62.00
2019-04-26T15:52:00.841Z,62.00
2019-04-26T15:53:12.833Z,62.40
2019-04-26T15:54:17.894Z,62.80
2019-04-26T15:55:26.067Z,63.30
2019-04-26T15:56:33.277Z,63.70
2019-04-26T15:57:40.503Z,63.10
2019-04-26T15:58:49.130Z,62.90
2019-04-26T15:59:58.042Z,62.80
2019-04-26T16:01:10.813Z,63.00
2019-04-26T16:02:18.459Z,63.70
2019-04-26T16:03:24.765Z,62.90
2019-04-26T16:04:32.475Z,62.80
2019-04-26T16:05:39.836Z,62.80
2019-04-26T16:06:47.133Z,62.80
2019-04-26T16:07:57.388Z,62.70
2019-04-26T16:09:03.284Z,62.80
2019-04-26T16:10:12.359Z,62.90
2019-04-26T16:11:19.700Z,62.80
2019-04-26T16:12:27.310Z,62.80
2019-04-26T16:13:34.570Z,62.70
2019-04-26T16:14:42.277Z,62.50
2019-04-26T16:15:49.774Z,62.30
2019-04-26T16:16:58.392Z,62.20
2019-04-26T16:18:06.071Z,62.20
2019-04-26T16:19:13.283Z,61.80
2019-04-26T16:20:22.039Z,61.60
2019-04-26T16:21:29.597Z,61.60
2019-04-26T16:22:36.804Z,61.60
2019-04-26T16:23:51.113Z,61.70
2019-04-26T16:24:53.189Z,61.60
2019-04-26T16:26:00.498Z,61.50
2019-04-26T16:27:07.847Z,61.80
2019-04-26T16:28:33.322Z,61.70
2019-04-26T16:30:08.470Z,61.50
2019-04-26T16:31:34.720Z,61.60
2019-04-26T16:33:03.879Z,61.50
2019-04-26T16:34:14.449Z,61.50
2019-04-26T16:35:27.919Z,61.50
2019-04-26T16:36:32.211Z,62.20
2019-04-26T16:37:39.503Z,61.80
2019-04-26T16:38:48.559Z,61.90
2019-04-26T16:39:55.705Z,62.20
2019-04-26T16:41:03.498Z,62.30
2019-04-26T16:42:13.828Z,62.40
2019-04-26T16:43:34.821Z,62.70
2019-04-26T16:44:31.331Z,63.00
2019-04-26T16:45:41.256Z,63.10
2019-04-26T16:46:46.614Z,63.20
2019-04-26T16:47:53.854Z,63.40
2019-04-26T16:49:02.360Z,63.60
2019-04-26T16:50:15.025Z,63.40
2019-04-26T16:51:19.225Z,63.30
2019-04-26T16:52:26.513Z,63.30
2019-04-26T16:53:45.888Z,63.20
2019-04-26T16:54:42.691Z,63.40
2019-04-26T16:55:52.550Z,63.40
2019-04-26T16:57:05.124Z,63.40